createdAt,value
2019-03-23T00:01:55.372Z,10.38
2019-03-23T00:04:21.515Z,10.42
2019-03-23T00:06:47.824Z,10.35
2019-03-23T00:09:15.149Z,10.38
2019-03-23T00:11:41.364Z,10.40
2019-03-23T00:14:07.452Z,10.38
2019-03-23T00:16:34.485Z,10.43
2019-03-23T00:19:00.592Z,10.47
2019-03-23T00:21:26.861Z,10.44
2019-03-23T00:23:53.046Z,10.38
2019-03-23T00:26:19.396Z,10.33
2019-03-23T00:28:45.559Z,10.27
2019-03-23T00:31:11.732Z,10.33
2019-03-23T00:33:37.884Z,10.38
2019-03-23T00:36:05.152Z,10.34
2019-03-23T00:38:31.308Z,10.36
2019-03-23T00:40:57.512Z,10.37
2019-03-23T00:43:23.615Z,10.36
2019-03-23T00:45:49.841Z,10.31
2019-03-23T00:48:15.987Z,10.26
2019-03-23T00:50:42.205Z,10.26
2019-03-23T00:53:08.728Z,10.23
2019-03-23T00:55:35.149Z,10.22
2019-03-23T00:58:01.850Z,10.18
2019-03-23T01:00:28.695Z,10.12
2019-03-23T01:02:55.484Z,10.08
2019-03-23T01:05:22.339Z,10.08
2019-03-23T01:07:49.081Z,10.09
2019-03-23T01:10:16.016Z,10.11
2019-03-23T01:12:42.762Z,10.11
2019-03-23T01:15:12.004Z,10.07
2019-03-23T01:17:38.760Z,10.08
2019-03-23T01:20:07.973Z,10.12
2019-03-23T01:22:34.816Z,10.12
2019-03-23T01:25:01.692Z,10.11
2019-03-23T01:27:28.645Z,10.08
2019-03-23T01:29:55.421Z,10.04
2019-03-23T01:32:22.268Z,10.03
2019-03-23T01:34:49.045Z,10.00
2019-03-23T01:37:15.308Z,10.01
2019-03-23T01:39:41.478Z,10.00
2019-03-23T01:42:07.623Z,10.01
2019-03-23T01:44:33.848Z,10.06
2019-03-23T01:46:59.989Z,10.05
2019-03-23T01:49:26.144Z,10.05
2019-03-23T01:51:52.302Z,10.07
2019-03-23T01:54:18.492Z,10.02
2019-03-23T01:56:44.635Z,9.96
2019-03-23T01:59:10.837Z,9.95
2019-03-23T02:01:36.994Z,9.93
2019-03-23T02:04:03.159Z,9.87
2019-03-23T02:06:29.320Z,9.88
2019-03-23T02:08:55.474Z,9.90
2019-03-23T02:11:21.626Z,9.87
2019-03-23T02:13:47.851Z,9.87
2019-03-23T02:16:14.043Z,9.84
2019-03-23T02:18:40.271Z,9.84
2019-03-23T02:21:06.434Z,9.85
2019-03-23T02:23:32.673Z,9.83
2019-03-23T02:25:58.822Z,9.83
2019-03-23T02:28:25.190Z,9.84
2019-03-23T02:30:51.455Z,9.79
2019-03-23T02:33:17.680Z,9.74
2019-03-23T02:35:43.898Z,9.71
2019-03-23T02:38:10.193Z,9.67
2019-03-23T02:40:36.366Z,9.67
2019-03-23T02:43:02.878Z,9.74
2019-03-23T02:45:30.518Z,9.73
2019-03-23T02:47:56.952Z,9.71
2019-03-23T02:50:23.062Z,9.69
2019-03-23T02:52:49.388Z,9.68
2019-03-23T02:55:15.488Z,9.68
2019-03-23T02:57:41.713Z,9.69
2019-03-23T03:00:12.486Z,9.75
2019-03-23T03:02:38.808Z,9.79
2019-03-23T03:05:08.510Z,9.78
2019-03-23T03:07:41.844Z,9.75
2019-03-23T03:10:07.122Z,9.72
2019-03-23T03:12:33.465Z,9.76
2019-03-23T03:14:59.647Z,9.82
2019-03-23T03:17:25.912Z,9.80
2019-03-23T03:19:52.190Z,9.81
2019-03-23T03:22:18.461Z,9.75
2019-03-23T03:24:44.681Z,9.71
2019-03-23T03:27:10.837Z,9.72
2019-03-23T03:29:37.179Z,9.75
2019-03-23T03:32:03.381Z,9.72
2019-03-23T03:34:29.575Z,9.66
2019-03-23T03:36:55.732Z,9.61
2019-03-23T03:39:22.049Z,9.61
2019-03-23T03:41:48.253Z,9.56
2019-03-23T03:44:14.572Z,9.53
2019-03-23T03:46:40.797Z,9.49
2019-03-23T03:49:12.631Z,9.50
2019-03-23T03:51:35.199Z,9.59
2019-03-23T03:54:01.400Z,9.49
2019-03-23T03:56:27.661Z,9.43
2019-03-23T03:58:54.036Z,9.40
2019-03-23T04:01:20.358Z,9.46
2019-03-23T04:03:46.683Z,9.46
2019-03-23T04:06:12.790Z,9.44
2019-03-23T04:08:38.982Z,9.46
2019-03-23T04:11:05.155Z,9.48
2019-03-23T04:13:31.340Z,9.53
2019-03-23T04:15:57.512Z,9.58
2019-03-23T04:18:23.826Z,9.61
2019-03-23T04:20:49.929Z,9.62
2019-03-23T04:23:16.166Z,9.61
2019-03-23T04:25:42.297Z,9.59
2019-03-23T04:28:08.548Z,9.53
2019-03-23T04:30:34.780Z,9.51
2019-03-23T04:33:00.894Z,9.59
2019-03-23T04:35:27.120Z,9.62
2019-03-23T04:37:53.284Z,9.66
2019-03-23T04:40:19.506Z,9.59
2019-03-23T04:42:45.612Z,9.54
2019-03-23T04:45:12.020Z,9.55
2019-03-23T04:47:38.134Z,9.49
2019-03-23T04:50:07.164Z,9.51
2019-03-23T04:52:33.331Z,9.52
2019-03-23T04:54:59.582Z,9.53
2019-03-23T04:57:25.887Z,9.51
2019-03-23T04:59:52.998Z,9.49
2019-03-23T05:02:19.220Z,9.45
2019-03-23T05:04:45.341Z,9.44
2019-03-23T05:07:11.576Z,9.33
2019-03-23T05:09:37.700Z,9.27
2019-03-23T05:12:03.994Z,9.23
2019-03-23T05:14:30.112Z,9.21
2019-03-23T05:16:56.323Z,9.25
2019-03-23T05:19:22.428Z,9.26
2019-03-23T05:21:48.767Z,9.27
2019-03-23T05:24:14.991Z,9.21
2019-03-23T05:26:41.166Z,9.22
2019-03-23T05:29:07.338Z,9.21
2019-03-23T05:31:33.667Z,9.23
2019-03-23T05:33:59.982Z,9.22
2019-03-23T05:36:26.200Z,9.18
2019-03-23T05:38:52.311Z,9.20
2019-03-23T05:41:18.541Z,9.25
2019-03-23T05:43:44.716Z,9.25
2019-03-23T05:46:10.861Z,9.28
2019-03-23T05:48:37.092Z,9.28
2019-03-23T05:51:03.224Z,9.30
2019-03-23T05:53:29.445Z,9.24
2019-03-23T05:55:55.636Z,9.24
2019-03-23T05:58:21.874Z,9.25
2019-03-23T06:00:48.093Z,9.30
2019-03-23T06:03:14.312Z,9.29
2019-03-23T06:05:40.555Z,9.33
2019-03-23T06:08:06.784Z,9.38
2019-03-23T06:10:32.949Z,9.44
2019-03-23T06:12:59.158Z,9.43
2019-03-23T06:15:25.351Z,9.52
2019-03-23T06:17:51.576Z,9.54
2019-03-23T06:20:17.844Z,9.57
2019-03-23T06:22:45.007Z,9.57
2019-03-23T06:25:11.255Z,9.62
2019-03-23T06:27:37.431Z,9.74
2019-03-23T06:30:06.442Z,9.89
2019-03-23T06:32:32.562Z,10.02
2019-03-23T06:34:58.797Z,10.12
2019-03-23T06:37:24.905Z,10.15
2019-03-23T06:39:51.140Z,10.14
2019-03-23T06:42:17.248Z,10.16
2019-03-23T06:44:43.490Z,10.24
2019-03-23T06:47:09.666Z,10.34
2019-03-23T06:49:35.997Z,10.42
2019-03-23T06:52:02.216Z,10.47
2019-03-23T06:54:28.733Z,10.52
2019-03-23T06:56:54.889Z,10.59
2019-03-23T06:59:21.206Z,10.60
2019-03-23T07:01:47.425Z,10.62
2019-03-23T07:04:13.632Z,10.63
2019-03-23T07:06:39.796Z,10.67
2019-03-23T07:09:15.795Z,10.70
2019-03-23T07:11:34.024Z,10.76
2019-03-23T07:14:00.194Z,10.85
2019-03-23T07:16:26.423Z,10.94
2019-03-23T07:18:52.573Z,11.02
2019-03-23T07:21:19.295Z,11.11
2019-03-23T07:23:45.451Z,11.20
2019-03-23T07:26:11.677Z,11.29
2019-03-23T07:28:37.769Z,11.38
2019-03-23T07:31:04.279Z,11.45
2019-03-23T07:33:30.430Z,11.54
2019-03-23T07:35:56.682Z,11.62
2019-03-23T07:38:22.785Z,11.67
2019-03-23T07:40:49.022Z,11.77
2019-03-23T07:43:15.304Z,11.86
2019-03-23T07:45:41.467Z,11.92
2019-03-23T07:48:07.651Z,12.00
2019-03-23T07:50:33.920Z,12.10
2019-03-23T07:53:00.019Z,12.17
2019-03-23T07:55:26.266Z,12.23
2019-03-23T07:57:52.354Z,12.28
2019-03-23T08:00:19.560Z,12.37
2019-03-23T08:02:45.866Z,12.44
2019-03-23T08:05:12.194Z,12.50
2019-03-23T08:07:38.443Z,12.56
2019-03-23T08:10:05.610Z,12.66
2019-03-23T08:12:31.867Z,12.74
2019-03-23T08:14:58.184Z,12.85
2019-03-23T08:17:24.436Z,12.93
2019-03-23T08:19:51.690Z,13.02
2019-03-23T08:22:17.858Z,13.13
2019-03-23T08:24:45.042Z,13.21
2019-03-23T08:27:11.255Z,13.31
2019-03-23T08:29:37.649Z,13.43
2019-03-23T08:32:03.914Z,13.50
2019-03-23T08:34:30.245Z,13.61
2019-03-23T08:36:57.033Z,13.71
2019-03-23T08:39:23.289Z,13.81
2019-03-23T08:41:49.567Z,13.88
2019-03-23T08:44:15.743Z,13.99
2019-03-23T08:46:41.884Z,14.08
2019-03-23T08:49:08.240Z,14.19
2019-03-23T08:51:34.399Z,14.31
2019-03-23T08:54:00.601Z,14.45
2019-03-23T08:56:26.789Z,14.60
2019-03-23T08:58:53.352Z,14.77
2019-03-23T09:01:19.625Z,14.95
2019-03-23T09:03:52.548Z,15.09
2019-03-23T09:06:13.841Z,15.27
2019-03-23T09:08:41.054Z,15.44
2019-03-23T09:11:07.378Z,15.61
2019-03-23T09:13:40.659Z,15.77
2019-03-23T09:16:02.529Z,15.95
2019-03-23T09:18:29.034Z,16.16
2019-03-23T09:20:55.273Z,16.30
2019-03-23T09:23:21.440Z,16.42
2019-03-23T09:25:47.679Z,16.57
2019-03-23T09:28:14.885Z,16.81
2019-03-23T09:30:41.327Z,17.04
2019-03-23T09:33:07.491Z,17.25
2019-03-23T09:35:33.850Z,17.43
2019-03-23T09:37:59.989Z,17.59
2019-03-23T09:40:26.210Z,17.76
2019-03-23T09:42:52.455Z,17.99
2019-03-23T09:45:18.885Z,18.15
2019-03-23T09:47:45.164Z,18.45
2019-03-23T09:50:11.661Z,18.74
2019-03-23T09:52:37.967Z,18.90
2019-03-23T09:55:06.398Z,19.08
2019-03-23T09:57:32.502Z,19.30
2019-03-23T09:59:58.788Z,19.52
2019-03-23T10:02:26.065Z,19.68
2019-03-23T10:04:52.445Z,19.80
2019-03-23T10:07:19.293Z,20.07
2019-03-23T10:09:46.076Z,20.29
2019-03-23T10:12:12.249Z,20.53
2019-03-23T10:14:38.902Z,20.65
2019-03-23T10:17:05.173Z,20.74
2019-03-23T10:19:31.420Z,20.90
2019-03-23T10:21:58.690Z,21.16
2019-03-23T10:24:25.106Z,21.32
2019-03-23T10:26:52.304Z,21.54
2019-03-23T10:29:18.743Z,21.87
2019-03-23T10:31:44.894Z,21.95
2019-03-23T10:34:11.073Z,22.23
2019-03-23T10:36:37.229Z,22.33
2019-03-23T10:39:04.661Z,22.53
2019-03-23T10:41:31.095Z,22.80
2019-03-23T10:43:57.320Z,23.05
2019-03-23T10:46:25.119Z,23.47
2019-03-23T10:48:52.092Z,23.90
2019-03-23T10:51:18.200Z,24.31
2019-03-23T10:53:45.025Z,24.63
2019-03-23T10:56:11.150Z,24.99
2019-03-23T10:58:37.367Z,25.51
2019-03-23T11:01:03.724Z,26.12
2019-03-23T11:03:29.903Z,26.54
2019-03-23T11:05:56.157Z,26.96
2019-03-23T11:08:22.405Z,27.79
2019-03-23T11:10:48.560Z,28.22
2019-03-23T11:13:14.765Z,28.23
2019-03-23T11:15:40.912Z,28.72
2019-03-23T11:18:07.117Z,28.99
2019-03-23T11:20:33.270Z,29.33
2019-03-23T11:23:00.631Z,30.12
2019-03-23T11:25:26.834Z,30.39
2019-03-23T11:27:53.342Z,30.72
2019-03-23T11:30:20.190Z,30.76
2019-03-23T11:32:46.606Z,31.63
2019-03-23T11:35:12.859Z,32.16
2019-03-23T11:37:40.022Z,32.48
2019-03-23T11:40:08.855Z,32.50
2019-03-23T11:42:35.247Z,32.76
2019-03-23T11:45:02.067Z,32.96
2019-03-23T11:47:29.433Z,32.99
2019-03-23T11:49:55.558Z,33.01
2019-03-23T11:52:22.513Z,32.85
2019-03-23T11:54:48.666Z,32.67
2019-03-23T11:57:14.910Z,32.68
2019-03-23T11:59:41.057Z,32.89
2019-03-23T12:02:07.301Z,33.13
2019-03-23T12:04:33.578Z,33.45
2019-03-23T12:06:59.746Z,34.19
2019-03-23T12:09:27.935Z,34.83
2019-03-23T12:11:54.658Z,34.88
2019-03-23T12:14:20.832Z,34.67
2019-03-23T12:16:47.018Z,34.58
2019-03-23T12:19:13.236Z,34.78
2019-03-23T12:21:39.727Z,35.27
2019-03-23T12:24:05.897Z,36.02
2019-03-23T12:26:32.178Z,36.59
2019-03-23T12:28:58.292Z,36.92
2019-03-23T12:31:24.521Z,36.21
2019-03-23T12:33:50.630Z,35.87
2019-03-23T12:36:17.056Z,35.53
2019-03-23T12:38:43.322Z,35.41
2019-03-23T12:41:18.553Z,35.89
2019-03-23T12:43:37.559Z,35.78
2019-03-23T12:46:03.995Z,36.12
2019-03-23T12:48:30.129Z,36.25
2019-03-23T12:50:56.369Z,36.01
2019-03-23T12:53:22.516Z,35.94
2019-03-23T12:55:49.077Z,36.13
2019-03-23T12:58:15.224Z,36.48
2019-03-23T13:00:41.672Z,36.73
2019-03-23T13:03:07.881Z,36.37
2019-03-23T13:05:34.591Z,36.57
2019-03-23T13:08:00.973Z,36.65
2019-03-23T13:10:27.133Z,36.87
2019-03-23T13:12:53.311Z,36.99
2019-03-23T13:15:19.564Z,37.22
2019-03-23T13:17:45.906Z,37.19
2019-03-23T13:20:12.675Z,37.29
2019-03-23T13:22:38.998Z,37.51
2019-03-23T13:25:07.016Z,37.76
2019-03-23T13:27:33.222Z,36.96
2019-03-23T13:29:59.416Z,36.68
2019-03-23T13:32:25.661Z,36.67
2019-03-23T13:34:51.807Z,36.78
2019-03-23T13:37:18.055Z,36.93
2019-03-23T13:39:44.250Z,37.15
2019-03-23T13:42:10.561Z,37.09
2019-03-23T13:44:36.812Z,36.89
2019-03-23T13:47:03.146Z,36.64
2019-03-23T13:49:29.377Z,36.68
2019-03-23T13:51:56.650Z,36.62
2019-03-23T13:54:22.901Z,36.57
2019-03-23T13:56:49.057Z,36.61
2019-03-23T13:59:15.281Z,36.87
2019-03-23T14:01:41.510Z,36.70
2019-03-23T14:04:07.701Z,36.12
2019-03-23T14:06:33.855Z,35.23
2019-03-23T14:09:00.075Z,34.28
2019-03-23T14:11:26.165Z,33.39
2019-03-23T14:13:52.393Z,33.02
2019-03-23T14:16:18.540Z,32.68
2019-03-23T14:18:44.741Z,32.62
2019-03-23T14:21:10.996Z,32.64
2019-03-23T14:23:37.111Z,32.63
2019-03-23T14:26:04.299Z,32.80
2019-03-23T14:28:30.728Z,32.85
2019-03-23T14:30:56.982Z,32.63
2019-03-23T14:33:23.105Z,32.59
2019-03-23T14:35:49.354Z,32.18
2019-03-23T14:38:15.513Z,31.69
2019-03-23T14:40:41.757Z,31.57
2019-03-23T14:43:07.855Z,31.36
2019-03-23T14:45:34.175Z,31.11
2019-03-23T14:48:00.340Z,30.80
2019-03-23T14:50:26.587Z,30.69
2019-03-23T14:52:52.770Z,30.85
2019-03-23T14:55:19.001Z,31.25
2019-03-23T14:57:45.178Z,31.17
2019-03-23T15:00:14.497Z,30.78
2019-03-23T15:02:40.657Z,30.06
2019-03-23T15:05:07.194Z,29.39
2019-03-23T15:07:33.302Z,28.77
2019-03-23T15:09:59.528Z,28.28
2019-03-23T15:12:25.652Z,27.90
2019-03-23T15:14:51.895Z,27.41
2019-03-23T15:17:18.030Z,26.95
2019-03-23T15:19:44.243Z,26.53
2019-03-23T15:22:10.381Z,26.15
2019-03-23T15:24:36.591Z,25.83
2019-03-23T15:27:02.865Z,25.59
2019-03-23T15:29:29.374Z,25.29
2019-03-23T15:31:55.558Z,24.95
2019-03-23T15:34:21.716Z,24.47
2019-03-23T15:36:47.879Z,24.14
2019-03-23T15:39:14.085Z,23.76
2019-03-23T15:41:40.188Z,23.48
2019-03-23T15:44:06.433Z,23.21
2019-03-23T15:46:32.599Z,22.84
2019-03-23T15:48:58.829Z,22.54
2019-03-23T15:51:24.990Z,22.34
2019-03-23T15:53:52.250Z,22.09
2019-03-23T15:56:18.408Z,21.83
2019-03-23T15:58:44.583Z,21.61
2019-03-23T16:01:10.767Z,21.43
2019-03-23T16:03:36.937Z,21.24
2019-03-23T16:06:03.234Z,21.05
2019-03-23T16:08:30.514Z,20.92
2019-03-23T16:10:56.817Z,20.78
2019-03-23T16:13:23.007Z,20.65
2019-03-23T16:15:49.175Z,20.46
2019-03-23T16:18:15.471Z,20.20
2019-03-23T16:20:41.642Z,19.95
2019-03-23T16:23:08.126Z,19.68
2019-03-23T16:25:34.295Z,19.29
2019-03-23T16:28:01.586Z,19.29
2019-03-23T16:30:29.237Z,19.10
2019-03-23T16:32:55.457Z,18.86
2019-03-23T16:35:21.563Z,18.67
2019-03-23T16:37:47.833Z,18.52
2019-03-23T16:40:14.222Z,18.36
2019-03-23T16:42:45.239Z,18.18
2019-03-23T16:45:09.160Z,18.07
2019-03-23T16:47:35.657Z,17.92
2019-03-23T16:50:03.231Z,17.78
2019-03-23T16:52:29.553Z,17.62
2019-03-23T16:54:55.828Z,17.48
2019-03-23T16:57:22.050Z,17.36
2019-03-23T16:59:48.213Z,17.26
2019-03-23T17:02:14.364Z,17.09
2019-03-23T17:04:40.580Z,16.89
2019-03-23T17:07:06.783Z,16.72
2019-03-23T17:09:33.011Z,16.62
2019-03-23T17:11:59.103Z,16.47
2019-03-23T17:14:25.364Z,16.29
2019-03-23T17:16:52.479Z,16.15
2019-03-23T17:19:18.684Z,16.02
2019-03-23T17:21:44.866Z,15.87
2019-03-23T17:24:11.030Z,15.68
2019-03-23T17:26:37.175Z,15.52
2019-03-23T17:29:03.447Z,15.43
2019-03-23T17:31:29.609Z,15.31
2019-03-23T17:33:55.757Z,15.17
2019-03-23T17:36:21.960Z,15.03
2019-03-23T17:38:48.215Z,14.85
2019-03-23T17:41:15.493Z,14.71
2019-03-23T17:43:41.872Z,14.55
2019-03-23T17:46:08.149Z,14.44
2019-03-23T17:48:34.304Z,14.30
2019-03-23T17:51:00.613Z,14.21
2019-03-23T17:53:26.772Z,14.13
2019-03-23T17:55:52.960Z,14.04
2019-03-23T17:58:19.122Z,13.98
2019-03-23T18:00:45.299Z,13.90
2019-03-23T18:03:11.622Z,13.84
2019-03-23T18:05:38.970Z,13.78
2019-03-23T18:08:05.293Z,13.73
2019-03-23T18:10:31.388Z,13.65
2019-03-23T18:12:57.712Z,13.65
2019-03-23T18:15:23.901Z,13.71
2019-03-23T18:17:51.255Z,13.78
2019-03-23T18:20:17.718Z,13.85
2019-03-23T18:22:44.101Z,13.88
2019-03-23T18:25:10.571Z,13.85
2019-03-23T18:27:36.785Z,13.79
2019-03-23T18:30:15.767Z,13.66
2019-03-23T18:32:41.994Z,13.50
2019-03-23T18:35:08.131Z,13.31
2019-03-23T18:37:34.438Z,13.19
2019-03-23T18:40:00.685Z,13.06
2019-03-23T18:42:26.975Z,13.00
2019-03-23T18:44:53.179Z,12.93
2019-03-23T18:47:19.460Z,12.83
2019-03-23T18:49:45.662Z,12.73
2019-03-23T18:52:11.772Z,12.75
2019-03-23T18:54:38.012Z,12.70
2019-03-23T18:57:04.338Z,12.65
2019-03-23T18:59:30.556Z,12.58
2019-03-23T19:01:56.730Z,12.53
2019-03-23T19:04:22.994Z,12.47
2019-03-23T19:06:49.218Z,12.37
2019-03-23T19:09:15.333Z,12.29
2019-03-23T19:11:41.548Z,12.21
2019-03-23T19:14:07.647Z,12.21
2019-03-23T19:16:33.864Z,12.22
2019-03-23T19:19:00.020Z,12.24
2019-03-23T19:21:26.294Z,12.16
2019-03-23T19:23:52.524Z,12.06
2019-03-23T19:26:18.766Z,12.02
2019-03-23T19:28:45.003Z,12.01
2019-03-23T19:31:11.116Z,11.95
2019-03-23T19:33:37.381Z,11.92
2019-03-23T19:36:03.606Z,11.88
2019-03-23T19:38:29.824Z,11.88
2019-03-23T19:40:55.917Z,11.91
2019-03-23T19:43:22.126Z,11.90
2019-03-23T19:45:48.381Z,11.90
2019-03-23T19:48:14.607Z,11.82
2019-03-23T19:50:40.797Z,11.75
2019-03-23T19:53:07.055Z,11.69
2019-03-23T19:55:33.412Z,11.66
2019-03-23T19:57:59.703Z,11.61
2019-03-23T20:00:25.864Z,11.55
2019-03-23T20:02:52.110Z,11.45
2019-03-23T20:05:18.238Z,11.37
2019-03-23T20:07:45.231Z,11.37
2019-03-23T20:10:11.938Z,11.36
2019-03-23T20:12:38.143Z,11.37
2019-03-23T20:15:06.564Z,11.34
2019-03-23T20:17:32.800Z,11.31
2019-03-23T20:19:58.904Z,11.27
2019-03-23T20:22:25.126Z,11.25
2019-03-23T20:24:51.252Z,11.24
2019-03-23T20:27:17.448Z,11.22
2019-03-23T20:29:43.563Z,11.18
2019-03-23T20:32:10.069Z,11.16
2019-03-23T20:34:36.235Z,11.11
2019-03-23T20:37:02.644Z,11.07
2019-03-23T20:39:29.080Z,11.00
2019-03-23T20:41:55.322Z,10.88
2019-03-23T20:44:21.433Z,10.79
2019-03-23T20:46:48.169Z,10.68
2019-03-23T20:49:15.177Z,10.55
2019-03-23T20:51:42.819Z,10.43
2019-03-23T20:54:08.923Z,10.32
2019-03-23T20:56:35.166Z,10.22
2019-03-23T20:59:01.325Z,10.16
2019-03-23T21:01:27.679Z,10.13
2019-03-23T21:03:53.965Z,10.15
2019-03-23T21:06:20.188Z,10.16
2019-03-23T21:08:46.292Z,10.17
2019-03-23T21:11:12.999Z,10.16
2019-03-23T21:13:39.259Z,10.17
2019-03-23T21:16:05.553Z,10.18
2019-03-23T21:18:31.665Z,10.20
2019-03-23T21:20:57.979Z,10.23
2019-03-23T21:23:24.080Z,10.26
2019-03-23T21:25:50.295Z,10.28
2019-03-23T21:28:16.454Z,10.30
2019-03-23T21:30:42.691Z,10.32
2019-03-23T21:33:08.988Z,10.31
2019-03-23T21:35:35.147Z,10.31
2019-03-23T21:38:01.364Z,10.31
2019-03-23T21:40:27.536Z,10.30
2019-03-23T21:42:53.799Z,10.29
2019-03-23T21:45:19.937Z,10.29
2019-03-23T21:47:46.118Z,10.28
2019-03-23T21:50:12.498Z,10.29
2019-03-23T21:52:38.669Z,10.28
2019-03-23T21:55:05.426Z,10.26
2019-03-23T21:57:31.587Z,10.26
2019-03-23T21:59:57.778Z,10.26
2019-03-23T22:02:23.951Z,10.26
2019-03-23T22:04:50.118Z,10.26
2019-03-23T22:07:16.444Z,10.22
2019-03-23T22:09:42.558Z,10.11
2019-03-23T22:12:08.771Z,10.06
2019-03-23T22:14:41.648Z,10.00
2019-03-23T22:17:03.059Z,9.98
2019-03-23T22:19:29.429Z,9.93
2019-03-23T22:21:55.651Z,9.96
2019-03-23T22:24:21.759Z,9.98
2019-03-23T22:26:47.980Z,9.95
2019-03-23T22:29:15.301Z,9.95
2019-03-23T22:31:41.482Z,9.93
2019-03-23T22:34:07.646Z,9.95
2019-03-23T22:36:33.814Z,9.94
2019-03-23T22:39:01.096Z,9.95
2019-03-23T22:41:27.571Z,9.93
2019-03-23T22:43:54.073Z,9.92
2019-03-23T22:46:20.473Z,9.87
2019-03-23T22:48:46.732Z,9.83
2019-03-23T22:51:12.899Z,9.84
2019-03-23T22:53:39.047Z,9.80
2019-03-23T22:56:05.261Z,9.77
2019-03-23T22:58:31.412Z,9.74
2019-03-23T23:00:57.908Z,9.76
2019-03-23T23:03:24.155Z,9.78
2019-03-23T23:05:50.490Z,9.78
2019-03-23T23:08:16.871Z,9.74
2019-03-23T23:10:43.128Z,9.72
2019-03-23T23:13:09.308Z,9.71
2019-03-23T23:15:35.596Z,9.72
2019-03-23T23:18:01.871Z,9.74
2019-03-23T23:20:28.088Z,9.74
2019-03-23T23:22:54.305Z,9.70
2019-03-23T23:25:20.524Z,9.68
2019-03-23T23:27:46.901Z,9.65
2019-03-23T23:30:14.827Z,9.62
2019-03-23T23:32:40.927Z,9.61
2019-03-23T23:35:07.970Z,9.62
2019-03-23T23:37:34.078Z,9.63
2019-03-23T23:40:00.403Z,9.62
2019-03-23T23:42:26.672Z,9.60
2019-03-23T23:44:53.937Z,9.59
2019-03-23T23:47:20.115Z,9.59
2019-03-23T23:49:46.345Z,9.57
2019-03-23T23:52:12.497Z,9.57
2019-03-23T23:54:38.666Z,9.54
2019-03-23T23:57:04.845Z,9.48
2019-03-23T23:59:31.003Z,9.43
